createdAt,value
2022-12-21T00:02:33.101Z,4.50
2022-12-21T00:07:46.318Z,4.40
2022-12-21T00:12:59.013Z,4.30
2022-12-21T00:18:01.711Z,4.30
2022-12-21T00:23:04.333Z,4.30
2022-12-21T00:28:06.993Z,4.20
2022-12-21T00:33:09.715Z,4.40
2022-12-21T00:38:12.416Z,4.20
2022-12-21T00:43:15.099Z,4.30
2022-12-21T00:48:17.882Z,4.30
2022-12-21T00:53:21.280Z,4.40
2022-12-21T00:58:24.347Z,4.60
2022-12-21T01:03:27.461Z,4.70
2022-12-21T01:08:30.184Z,4.80
2022-12-21T01:13:32.843Z,4.90
2022-12-21T01:18:35.585Z,4.90
2022-12-21T01:23:38.899Z,5.00
2022-12-21T01:28:41.565Z,5.10
2022-12-21T01:33:44.324Z,5.10
2022-12-21T01:38:47.377Z,5.20
2022-12-21T01:43:50.012Z,5.20
2022-12-21T01:48:52.725Z,5.30
2022-12-21T01:53:55.437Z,5.40
2022-12-21T01:58:58.012Z,5.50
2022-12-21T02:04:00.985Z,5.50
2022-12-21T02:09:03.649Z,5.50
2022-12-21T02:14:09.523Z,5.50
2022-12-21T02:19:12.398Z,4.80
2022-12-21T02:24:15.081Z,5.50
2022-12-21T02:29:17.777Z,5.50
2022-12-21T02:34:20.435Z,5.50
2022-12-21T02:39:23.658Z,5.60
2022-12-21T02:44:26.483Z,5.50
2022-12-21T02:49:29.688Z,5.50
2022-12-21T02:54:32.493Z,5.50
2022-12-21T02:59:35.622Z,5.50
2022-12-21T03:04:38.433Z,5.50
2022-12-21T03:09:41.558Z,5.50
2022-12-21T03:14:44.293Z,5.40
2022-12-21T03:19:47.190Z,5.50
2022-12-21T03:24:49.810Z,5.50
2022-12-21T03:29:52.538Z,5.40
2022-12-21T03:34:55.569Z,5.40
2022-12-21T03:40:04.395Z,5.50
2022-12-21T03:45:07.972Z,5.50
2022-12-21T03:50:10.593Z,5.60
2022-12-21T03:55:13.204Z,5.60
2022-12-21T04:00:15.866Z,5.60
2022-12-21T04:05:21.959Z,5.60
2022-12-21T04:10:24.584Z,5.60
2022-12-21T04:15:47.540Z,5.70
2022-12-21T04:20:50.385Z,5.70
2022-12-21T04:26:11.131Z,5.60
2022-12-21T04:31:14.215Z,5.60
2022-12-21T04:36:34.589Z,5.50
2022-12-21T04:41:37.219Z,5.50
2022-12-21T04:46:40.241Z,5.50
2022-12-21T04:51:42.862Z,5.90
2022-12-21T04:56:45.728Z,5.50
2022-12-21T05:01:48.739Z,5.60
2022-12-21T05:06:55.970Z,5.60
2022-12-21T05:11:58.732Z,5.50
2022-12-21T05:17:08.760Z,5.50
2022-12-21T05:22:11.390Z,5.50
2022-12-21T05:27:14.429Z,5.50
2022-12-21T05:32:17.089Z,5.50
2022-12-21T05:37:19.695Z,5.50
2022-12-21T05:42:22.842Z,5.50
2022-12-21T05:47:26.605Z,5.40
2022-12-21T05:52:29.312Z,5.40
2022-12-21T05:57:32.139Z,5.40
2022-12-21T06:02:34.951Z,5.40
2022-12-21T06:07:38.642Z,5.40
2022-12-21T06:12:41.312Z,5.40
2022-12-21T06:17:43.918Z,5.40
2022-12-21T06:22:46.612Z,5.40
2022-12-21T06:27:49.208Z,5.60
2022-12-21T06:32:51.806Z,5.40
2022-12-21T06:37:54.792Z,5.40
2022-12-21T06:42:57.615Z,5.40
2022-12-21T06:48:00.458Z,5.50
2022-12-21T06:53:03.228Z,5.50
2022-12-21T06:58:05.867Z,5.40
2022-12-21T07:03:08.834Z,5.40
2022-12-21T07:08:11.536Z,5.40
2022-12-21T07:13:14.150Z,5.40
2022-12-21T07:18:16.800Z,5.40
2022-12-21T07:23:19.438Z,5.40
2022-12-21T07:28:25.654Z,5.40
2022-12-21T07:33:28.312Z,5.40
2022-12-21T07:38:30.939Z,5.30
2022-12-21T07:43:33.553Z,5.30
2022-12-21T07:48:36.504Z,5.30
2022-12-21T07:53:39.315Z,5.30
2022-12-21T07:58:41.955Z,5.30
2022-12-21T08:03:45.937Z,5.40
2022-12-21T08:08:48.643Z,5.40
2022-12-21T08:13:51.307Z,5.50
2022-12-21T08:18:53.916Z,5.60
2022-12-21T08:23:56.536Z,5.70
2022-12-21T08:29:01.719Z,5.80
2022-12-21T08:34:05.571Z,5.90
2022-12-21T08:39:10.174Z,5.90
2022-12-21T08:44:13.452Z,6.10
2022-12-21T08:49:16.255Z,6.10
2022-12-21T08:54:18.933Z,6.30
2022-12-21T08:59:21.770Z,6.40
2022-12-21T09:04:24.508Z,6.60
2022-12-21T09:09:27.872Z,6.70
2022-12-21T09:14:30.654Z,6.70
2022-12-21T09:19:33.359Z,6.70
2022-12-21T09:24:39.487Z,6.80
2022-12-21T09:29:42.111Z,6.90
2022-12-21T09:34:44.778Z,6.90
2022-12-21T09:39:47.813Z,7.10
2022-12-21T09:44:50.562Z,7.30
2022-12-21T09:49:53.335Z,7.40
2022-12-21T09:54:56.028Z,7.60
2022-12-21T09:59:58.768Z,7.70
2022-12-21T10:05:11.462Z,6.80
2022-12-21T10:10:15.410Z,7.90
2022-12-21T10:15:18.124Z,8.00
2022-12-21T10:20:20.791Z,8.30
2022-12-21T10:25:24.294Z,8.30
2022-12-21T10:30:27.097Z,8.40
2022-12-21T10:35:29.869Z,8.50
2022-12-21T10:40:32.472Z,8.60
2022-12-21T10:45:35.198Z,8.70
2022-12-21T10:50:37.884Z,8.80
2022-12-21T10:55:40.626Z,9.00
2022-12-21T11:00:48.982Z,9.00
2022-12-21T11:05:52.300Z,9.10
2022-12-21T11:10:55.601Z,9.00
2022-12-21T11:16:01.881Z,9.00
2022-12-21T11:21:05.520Z,9.10
2022-12-21T11:26:08.091Z,8.90
2022-12-21T11:31:10.926Z,9.10
2022-12-21T11:36:13.991Z,8.90
2022-12-21T11:41:16.850Z,8.80
2022-12-21T11:46:48.783Z,8.90
2022-12-21T11:51:44.875Z,9.00
2022-12-21T11:56:47.473Z,8.90
2022-12-21T12:01:50.132Z,8.90
2022-12-21T12:06:55.483Z,8.80
2022-12-21T12:12:00.286Z,9.10
2022-12-21T12:17:04.720Z,8.90
2022-12-21T12:22:07.400Z,8.90
2022-12-21T12:27:10.126Z,8.90
2022-12-21T12:32:15.438Z,8.80
2022-12-21T12:37:18.152Z,8.80
2022-12-21T12:42:21.847Z,8.80
2022-12-21T12:47:24.800Z,8.80
2022-12-21T12:52:27.943Z,8.90
2022-12-21T12:57:30.907Z,9.10
2022-12-21T13:07:37.463Z,9.30
2022-12-21T13:12:40.195Z,9.50
2022-12-21T13:17:42.884Z,9.70
2022-12-21T13:22:47.677Z,9.90
2022-12-21T13:27:50.924Z,10.00
2022-12-21T13:32:54.230Z,10.00
2022-12-21T13:37:57.039Z,9.90
2022-12-21T13:43:04.218Z,10.00
2022-12-21T13:48:10.291Z,10.00
2022-12-21T13:53:13.342Z,10.00
2022-12-21T13:58:15.940Z,9.90
2022-12-21T14:03:18.821Z,9.80
2022-12-21T14:08:21.662Z,9.70
2022-12-21T14:13:27.327Z,9.60
2022-12-21T14:18:36.859Z,9.60
2022-12-21T14:23:39.475Z,9.60
2022-12-21T14:28:42.260Z,9.70
2022-12-21T14:34:17.071Z,9.70
2022-12-21T14:39:08.869Z,9.70
2022-12-21T14:44:23.143Z,9.70
2022-12-21T14:49:25.839Z,9.50
2022-12-21T14:54:28.525Z,9.50
2022-12-21T14:59:31.749Z,9.40
2022-12-21T15:04:35.346Z,9.50
2022-12-21T15:09:38.036Z,9.20
2022-12-21T15:14:40.827Z,9.10
2022-12-21T15:19:44.182Z,9.20
2022-12-21T15:24:48.985Z,9.00
2022-12-21T15:29:52.129Z,9.00
2022-12-21T15:34:54.866Z,8.90
2022-12-21T15:40:01.537Z,8.80
2022-12-21T15:45:04.298Z,8.60
2022-12-21T15:50:07.316Z,8.40
2022-12-21T15:55:10.514Z,8.30
2022-12-21T16:00:13.339Z,8.10
2022-12-21T16:05:16.371Z,8.00
2022-12-21T16:10:18.992Z,8.00
2022-12-21T16:15:23.732Z,8.20
2022-12-21T16:20:26.343Z,8.00
2022-12-21T16:25:30.933Z,8.00
2022-12-21T16:30:34.818Z,8.10
2022-12-21T16:35:37.459Z,8.00
2022-12-21T16:40:41.671Z,8.10
2022-12-21T16:45:46.350Z,8.10
2022-12-21T16:50:49.291Z,8.20
2022-12-21T16:55:52.296Z,8.20
2022-12-21T17:00:55.026Z,8.20
2022-12-21T17:06:00.271Z,8.20
2022-12-21T17:11:04.129Z,8.20
2022-12-21T17:16:07.096Z,8.20
2022-12-21T17:21:38.879Z,8.20
2022-12-21T17:26:32.707Z,8.20
2022-12-21T17:31:36.073Z,8.10
2022-12-21T17:36:38.774Z,8.00
2022-12-21T17:41:41.383Z,7.90
2022-12-21T17:46:44.097Z,7.70
2022-12-21T17:51:47.134Z,7.60
2022-12-21T17:56:51.148Z,7.50
2022-12-21T18:01:57.638Z,7.40
2022-12-21T18:07:00.800Z,7.40
2022-12-21T18:12:03.501Z,7.30
2022-12-21T18:17:06.196Z,7.20
2022-12-21T18:22:09.292Z,7.30
2022-12-21T18:27:12.125Z,7.50
2022-12-21T18:32:14.835Z,7.70
2022-12-21T18:37:17.579Z,7.90
2022-12-21T18:42:20.196Z,8.00
2022-12-21T18:47:30.337Z,8.10
2022-12-21T18:52:40.531Z,8.10
2022-12-21T18:57:43.949Z,8.20
2022-12-21T19:02:48.432Z,8.20
2022-12-21T19:07:53.117Z,8.10
2022-12-21T19:12:56.327Z,8.10
2022-12-21T19:17:58.951Z,8.20
2022-12-21T19:23:03.120Z,8.20
2022-12-21T19:28:06.301Z,8.10
2022-12-21T19:33:09.320Z,8.10
2022-12-21T19:38:12.399Z,7.90
2022-12-21T19:43:15.432Z,7.70
2022-12-21T19:48:19.180Z,7.60
2022-12-21T19:53:22.613Z,7.90
2022-12-21T19:58:26.286Z,7.50
2022-12-21T20:03:30.661Z,7.60
2022-12-21T20:08:33.984Z,7.60
2022-12-21T20:13:36.865Z,7.70
2022-12-21T20:18:40.039Z,7.90
2022-12-21T20:23:43.362Z,7.90
2022-12-21T20:28:46.997Z,7.90
2022-12-21T20:33:50.893Z,7.80
2022-12-21T20:38:59.560Z,7.70
2022-12-21T20:44:02.731Z,7.60
2022-12-21T20:49:05.732Z,7.90
2022-12-21T20:54:08.565Z,7.50
2022-12-21T20:59:11.203Z,7.50
2022-12-21T21:04:13.948Z,7.40
2022-12-21T21:09:28.861Z,7.30
2022-12-21T21:14:34.758Z,7.30
2022-12-21T21:19:46.944Z,7.20
2022-12-21T21:24:51.211Z,7.10
2022-12-21T21:30:01.798Z,7.10
2022-12-21T21:35:08.264Z,7.00
2022-12-21T21:40:28.884Z,6.90
2022-12-21T21:45:31.751Z,6.80
2022-12-21T21:50:34.584Z,6.80
2022-12-21T21:55:37.422Z,6.60
2022-12-21T22:00:40.044Z,6.60
2022-12-21T22:05:43.988Z,6.60
2022-12-21T22:10:46.747Z,6.50
2022-12-21T22:15:52.080Z,6.40
2022-12-21T22:21:12.409Z,6.30
2022-12-21T22:26:32.471Z,6.20
2022-12-21T22:31:52.918Z,6.10
2022-12-21T22:37:13.496Z,6.00
2022-12-21T22:42:32.813Z,5.90
2022-12-21T22:47:36.081Z,5.90
2022-12-21T22:52:38.773Z,6.00
2022-12-21T22:57:41.417Z,6.20
2022-12-21T23:02:44.579Z,6.10
2022-12-21T23:07:47.297Z,6.10
2022-12-21T23:13:17.651Z,6.20
2022-12-21T23:18:37.262Z,6.20
2022-12-21T23:23:57.734Z,6.30
2022-12-21T23:29:00.610Z,6.20
2022-12-21T23:34:21.288Z,6.30
2022-12-21T23:39:41.745Z,6.00
2022-12-21T23:44:44.363Z,5.90
2022-12-21T23:50:04.391Z,5.90
2022-12-21T23:55:24.541Z,5.90
